createdAt,value
2019-01-25T00:02:21.765Z,37.97
2019-01-25T00:05:25.950Z,35.60
2019-01-25T00:08:30.221Z,35.00
2019-01-25T00:11:34.413Z,38.37
2019-01-25T00:14:38.727Z,37.37
2019-01-25T00:17:42.839Z,33.57
2019-01-25T00:20:47.085Z,33.73
2019-01-25T00:23:51.328Z,38.77
2019-01-25T00:26:55.581Z,39.47
2019-01-25T00:29:59.792Z,34.87
2019-01-25T00:33:04.105Z,38.13
2019-01-25T00:36:08.221Z,37.07
2019-01-25T00:39:12.451Z,37.30
2019-01-25T00:42:16.581Z,35.00
2019-01-25T00:45:20.659Z,39.70
2019-01-25T00:48:24.741Z,38.80
2019-01-25T00:51:28.947Z,31.53
2019-01-25T00:54:33.117Z,38.93
2019-01-25T00:57:37.227Z,34.93
2019-01-25T01:00:41.343Z,39.97
2019-01-25T01:03:45.529Z,36.27
2019-01-25T01:06:49.716Z,43.90
2019-01-25T01:09:53.859Z,39.43
2019-01-25T01:12:57.993Z,35.07
2019-01-25T01:16:02.658Z,38.70
2019-01-25T01:19:06.837Z,34.17
2019-01-25T01:22:10.987Z,36.63
2019-01-25T01:25:15.348Z,40.97
2019-01-25T01:28:19.482Z,39.20
2019-01-25T01:31:23.689Z,36.10
2019-01-25T01:34:27.873Z,38.87
2019-01-25T01:37:32.105Z,32.23
2019-01-25T01:40:36.324Z,38.53
2019-01-25T01:43:40.496Z,36.37
2019-01-25T01:46:44.634Z,29.90
2019-01-25T01:49:48.848Z,33.83
2019-01-25T01:52:53.208Z,37.17
2019-01-25T01:55:58.427Z,35.33
2019-01-25T01:59:02.639Z,41.90
2019-01-25T02:02:06.816Z,36.90
2019-01-25T02:05:10.965Z,34.53
2019-01-25T02:08:15.092Z,36.20
2019-01-25T02:11:19.300Z,25.87
2019-01-25T02:14:23.551Z,35.57
2019-01-25T02:17:27.808Z,33.43
2019-01-25T02:20:32.188Z,34.23
2019-01-25T02:23:36.371Z,31.67
2019-01-25T02:26:40.451Z,35.37
2019-01-25T02:29:44.627Z,36.30
2019-01-25T02:32:48.802Z,37.87
2019-01-25T02:35:52.970Z,37.20
2019-01-25T02:38:57.197Z,33.10
2019-01-25T02:42:01.473Z,36.13
2019-01-25T02:45:06.913Z,36.60
2019-01-25T02:48:11.088Z,34.50
2019-01-25T02:51:18.257Z,33.87
2019-01-25T02:54:22.583Z,39.03
2019-01-25T02:57:26.741Z,34.77
2019-01-25T03:00:31.022Z,35.43
2019-01-25T03:03:35.199Z,33.47
2019-01-25T03:06:39.333Z,37.00
2019-01-25T03:09:43.437Z,37.37
2019-01-25T03:12:47.558Z,38.63
2019-01-25T03:15:51.742Z,33.87
2019-01-25T03:18:55.940Z,32.43
2019-01-25T03:22:00.034Z,36.83
2019-01-25T03:25:04.272Z,36.17
2019-01-25T03:28:08.362Z,37.67
2019-01-25T03:31:12.549Z,38.17
2019-01-25T03:34:16.711Z,31.93
2019-01-25T03:37:20.848Z,34.73
2019-01-25T03:40:28.866Z,32.73
2019-01-25T03:43:32.992Z,31.93
2019-01-25T03:46:37.164Z,33.50
2019-01-25T03:49:41.291Z,31.27
2019-01-25T03:52:45.406Z,35.73
2019-01-25T03:55:49.599Z,32.97
2019-01-25T03:58:53.685Z,32.37
2019-01-25T04:01:57.921Z,32.30
2019-01-25T04:05:02.088Z,38.00
2019-01-25T04:08:06.284Z,33.90
2019-01-25T04:11:10.442Z,40.97
2019-01-25T04:14:14.563Z,32.63
2019-01-25T04:17:18.736Z,34.57
2019-01-25T04:20:23.183Z,34.30
2019-01-25T04:23:27.359Z,32.73
2019-01-25T04:26:31.479Z,32.07
2019-01-25T04:29:35.567Z,30.63
2019-01-25T04:32:39.776Z,36.63
2019-01-25T04:35:43.936Z,37.03
2019-01-25T04:38:48.121Z,34.30
2019-01-25T04:41:52.296Z,33.43
2019-01-25T04:44:56.506Z,35.00
2019-01-25T04:48:00.676Z,32.33
2019-01-25T04:51:08.459Z,29.47
2019-01-25T04:54:12.543Z,37.40
2019-01-25T04:57:16.733Z,33.17
2019-01-25T05:00:21.452Z,34.93
2019-01-25T05:03:25.693Z,39.07
2019-01-25T05:06:29.844Z,33.40
2019-01-25T05:09:38.790Z,35.07
2019-01-25T05:12:43.480Z,33.63
2019-01-25T05:15:47.605Z,31.70
2019-01-25T05:18:51.777Z,31.60
2019-01-25T05:21:56.183Z,36.57
2019-01-25T05:25:00.426Z,36.13
2019-01-25T05:28:12.366Z,38.13
2019-01-25T05:31:18.589Z,36.53
2019-01-25T05:34:22.820Z,42.20
2019-01-25T05:37:26.911Z,41.00
2019-01-25T05:40:31.039Z,36.03
2019-01-25T05:43:39.580Z,36.97
2019-01-25T05:46:43.710Z,42.77
2019-01-25T05:49:47.729Z,50.47
2019-01-25T05:52:51.860Z,50.73
2019-01-25T05:55:56.020Z,51.43
2019-01-25T05:59:00.153Z,45.27
2019-01-25T06:02:04.237Z,45.80
2019-01-25T06:05:08.603Z,49.57
2019-01-25T06:08:30.368Z,43.80
2019-01-25T06:11:35.591Z,42.07
2019-01-25T06:14:39.929Z,53.73
2019-01-25T06:17:44.082Z,42.87
2019-01-25T06:20:50.772Z,52.60
2019-01-25T06:23:55.640Z,50.40
2019-01-25T06:26:59.826Z,51.00
2019-01-25T06:30:04.699Z,47.47
2019-01-25T06:33:08.864Z,53.00
2019-01-25T06:36:13.038Z,47.07
2019-01-25T06:39:18.315Z,47.77
2019-01-25T06:42:22.432Z,50.57
2019-01-25T06:45:26.623Z,45.60
2019-01-25T06:48:30.759Z,50.10
2019-01-25T06:51:34.857Z,47.90
2019-01-25T06:54:39.319Z,47.43
2019-01-25T06:57:55.973Z,45.77
2019-01-25T07:01:22.188Z,44.77
2019-01-25T07:04:26.313Z,43.73
2019-01-25T07:07:33.024Z,45.47
2019-01-25T07:10:37.139Z,41.77
2019-01-25T07:13:41.272Z,46.10
2019-01-25T07:16:45.375Z,46.53
2019-01-25T07:19:49.596Z,48.93
2019-01-25T07:22:53.763Z,45.57
2019-01-25T07:25:58.261Z,42.83
2019-01-25T07:29:02.441Z,50.63
2019-01-25T07:32:06.650Z,52.57
2019-01-25T07:35:10.790Z,53.30
2019-01-25T07:38:15.023Z,50.67
2019-01-25T07:41:19.205Z,53.70
2019-01-25T07:44:23.406Z,50.97
2019-01-25T07:47:27.593Z,53.97
2019-01-25T07:50:31.778Z,48.73
2019-01-25T07:53:35.864Z,52.70
2019-01-25T07:56:39.989Z,45.07
2019-01-25T07:59:44.168Z,48.93
2019-01-25T08:02:48.299Z,44.60
2019-01-25T08:05:52.458Z,43.03
2019-01-25T08:08:56.744Z,43.30
2019-01-25T08:12:07.252Z,47.93
2019-01-25T08:15:09.273Z,46.00
2019-01-25T08:18:13.396Z,50.87
2019-01-25T08:21:17.669Z,46.23
2019-01-25T08:24:21.865Z,48.63
2019-01-25T08:27:26.071Z,45.33
2019-01-25T08:30:30.297Z,50.67
2019-01-25T08:33:34.440Z,48.53
2019-01-25T08:36:38.665Z,46.57
2019-01-25T08:39:42.945Z,47.40
2019-01-25T08:42:47.117Z,46.47
2019-01-25T08:45:51.452Z,50.13
2019-01-25T08:48:55.610Z,45.40
2019-01-25T08:51:59.867Z,40.17
2019-01-25T08:55:04.245Z,43.23
2019-01-25T08:58:08.691Z,46.83
2019-01-25T09:01:12.914Z,46.37
2019-01-25T09:04:17.157Z,45.27
2019-01-25T09:07:21.417Z,45.73
2019-01-25T09:10:25.745Z,45.83
2019-01-25T09:13:30.254Z,46.33
2019-01-25T09:16:36.483Z,51.57
2019-01-25T09:19:40.585Z,51.50
2019-01-25T09:22:44.909Z,56.70
2019-01-25T09:25:49.252Z,52.50
2019-01-25T09:28:54.585Z,57.60
2019-01-25T09:31:58.818Z,54.63
2019-01-25T09:35:03.102Z,58.40
2019-01-25T09:38:07.272Z,56.17
2019-01-25T09:41:11.832Z,56.77
2019-01-25T09:44:16.391Z,54.73
2019-01-25T09:47:20.967Z,52.93
2019-01-25T09:50:25.375Z,56.20
2019-01-25T09:53:31.803Z,58.57
2019-01-25T09:56:36.788Z,57.70
2019-01-25T09:59:42.369Z,60.70
2019-01-25T10:02:46.836Z,61.33
2019-01-25T10:05:51.056Z,59.83
2019-01-25T10:08:55.219Z,54.33
2019-01-25T10:12:00.629Z,59.33
2019-01-25T10:15:05.754Z,63.00
2019-01-25T10:18:10.028Z,66.57
2019-01-25T10:21:15.663Z,62.50
2019-01-25T10:24:20.154Z,61.60
2019-01-25T10:27:24.328Z,64.47
2019-01-25T10:30:28.541Z,57.97
2019-01-25T10:33:32.654Z,62.00
2019-01-25T10:36:36.873Z,59.37
2019-01-25T10:39:40.989Z,63.53
2019-01-25T10:42:52.742Z,66.03
2019-01-25T10:45:51.089Z,66.97
2019-01-25T10:48:55.300Z,65.07
2019-01-25T10:51:59.480Z,68.93
2019-01-25T10:55:03.669Z,64.57
2019-01-25T10:58:08.376Z,74.40
2019-01-25T11:01:12.749Z,73.93
2019-01-25T11:04:16.961Z,68.77
2019-01-25T11:07:21.086Z,67.07
2019-01-25T11:10:25.269Z,67.03
2019-01-25T11:13:29.481Z,75.40
2019-01-25T11:16:33.581Z,70.90
2019-01-25T11:19:37.710Z,71.90
2019-01-25T11:22:41.914Z,70.77
2019-01-25T11:25:46.134Z,65.73
2019-01-25T11:28:50.215Z,67.43
2019-01-25T11:31:54.776Z,67.23
2019-01-25T11:34:58.864Z,70.07
2019-01-25T11:38:03.004Z,64.80
2019-01-25T11:41:07.157Z,75.77
2019-01-25T11:44:11.333Z,73.57
2019-01-25T11:47:15.435Z,68.37
2019-01-25T11:50:19.696Z,77.03
2019-01-25T11:53:23.804Z,80.03
2019-01-25T11:56:28.023Z,73.63
2019-01-25T11:59:32.199Z,81.67
2019-01-25T12:02:36.424Z,72.40
2019-01-25T12:05:40.583Z,78.00
2019-01-25T12:08:44.737Z,80.00
2019-01-25T12:11:48.918Z,78.27
2019-01-25T12:14:53.190Z,83.60
2019-01-25T12:17:57.404Z,89.87
2019-01-25T12:21:01.604Z,88.33
2019-01-25T12:24:05.900Z,91.63
2019-01-25T12:27:10.153Z,89.67
2019-01-25T12:30:23.176Z,89.37
2019-01-25T12:33:27.447Z,88.50
2019-01-25T12:36:31.640Z,88.57
2019-01-25T12:39:35.780Z,93.23
2019-01-25T12:42:39.888Z,85.70
2019-01-25T12:45:44.186Z,88.93
2019-01-25T12:48:48.293Z,91.03
2019-01-25T12:51:59.156Z,87.63
2019-01-25T12:55:03.360Z,94.60
2019-01-25T12:58:07.601Z,93.77
2019-01-25T13:01:11.697Z,96.60
2019-01-25T13:04:16.111Z,89.47
2019-01-25T13:07:20.224Z,96.23
2019-01-25T13:10:24.507Z,90.87
2019-01-25T13:13:31.731Z,98.90
2019-01-25T13:16:34.555Z,94.03
2019-01-25T13:19:38.733Z,87.77
2019-01-25T13:22:42.928Z,83.23
2019-01-25T13:25:47.350Z,90.70
2019-01-25T13:28:51.733Z,83.40
2019-01-25T13:31:55.847Z,79.93
2019-01-25T13:35:00.257Z,76.90
2019-01-25T13:38:04.667Z,79.80
2019-01-25T13:41:08.824Z,80.20
2019-01-25T13:44:13.055Z,70.67
2019-01-25T13:47:17.301Z,77.70
2019-01-25T13:50:23.645Z,76.93
2019-01-25T13:53:27.885Z,70.33
2019-01-25T13:56:33.252Z,73.80
2019-01-25T13:59:37.806Z,72.87
2019-01-25T14:02:42.074Z,67.53
2019-01-25T14:05:46.507Z,71.27
2019-01-25T14:08:50.670Z,66.93
2019-01-25T14:11:54.787Z,69.97
2019-01-25T14:14:58.889Z,71.87
2019-01-25T14:18:03.321Z,72.17
2019-01-25T14:21:07.512Z,75.03
2019-01-25T14:24:16.396Z,71.20
2019-01-25T14:27:17.490Z,76.90
2019-01-25T14:30:27.356Z,73.10
2019-01-25T14:33:31.455Z,69.07
2019-01-25T14:36:35.764Z,69.80
2019-01-25T14:39:39.874Z,69.80
2019-01-25T14:42:44.116Z,70.13
2019-01-25T14:45:48.354Z,72.57
2019-01-25T14:48:52.690Z,70.43
2019-01-25T14:51:56.862Z,76.87
2019-01-25T14:55:01.097Z,78.40
2019-01-25T14:58:06.556Z,70.80
2019-01-25T15:01:10.853Z,75.83
2019-01-25T15:04:15.044Z,79.13
2019-01-25T15:07:19.851Z,70.87
2019-01-25T15:10:25.119Z,75.13
2019-01-25T15:13:29.372Z,78.80
2019-01-25T15:16:33.683Z,81.07
2019-01-25T15:19:37.976Z,79.13
2019-01-25T15:22:42.236Z,81.77
2019-01-25T15:25:46.598Z,80.03
2019-01-25T15:28:50.789Z,80.13
2019-01-25T15:31:55.076Z,80.20
2019-01-25T15:34:59.429Z,83.53
2019-01-25T15:38:03.665Z,79.07
2019-01-25T15:41:07.888Z,83.60
2019-01-25T15:44:12.227Z,79.60
2019-01-25T15:47:16.762Z,80.10
2019-01-25T15:50:23.051Z,74.97
2019-01-25T15:53:27.250Z,76.00
2019-01-25T15:56:31.457Z,76.83
2019-01-25T15:59:37.708Z,74.47
2019-01-25T16:02:41.976Z,78.70
2019-01-25T16:05:46.117Z,80.93
2019-01-25T16:08:50.372Z,79.40
2019-01-25T16:11:54.484Z,80.70
2019-01-25T16:14:58.628Z,88.43
2019-01-25T16:18:02.835Z,79.30
2019-01-25T16:21:07.088Z,88.17
2019-01-25T16:24:11.283Z,83.73
2019-01-25T16:27:15.595Z,87.40
2019-01-25T16:30:22.156Z,84.03
2019-01-25T16:33:26.320Z,85.97
2019-01-25T16:36:30.453Z,90.57
2019-01-25T16:39:34.681Z,91.73
2019-01-25T16:42:38.797Z,84.87
2019-01-25T16:45:44.322Z,88.37
2019-01-25T16:48:48.882Z,86.30
2019-01-25T16:51:53.266Z,98.27
2019-01-25T16:54:57.680Z,96.40
2019-01-25T16:58:01.977Z,95.53
2019-01-25T17:01:06.526Z,87.37
2019-01-25T17:04:10.881Z,96.23
2019-01-25T17:07:15.176Z,94.93
2019-01-25T17:10:19.606Z,105.27
2019-01-25T17:13:23.708Z,96.50
2019-01-25T17:16:27.845Z,105.10
2019-01-25T17:19:32.051Z,99.07
2019-01-25T17:22:36.231Z,107.80
2019-01-25T17:25:40.425Z,109.73
2019-01-25T17:28:44.663Z,99.93
2019-01-25T17:31:48.953Z,118.67
2019-01-25T17:34:53.168Z,104.53
2019-01-25T17:37:57.521Z,110.17
2019-01-25T17:41:01.953Z,113.03
2019-01-25T17:44:06.152Z,112.23
2019-01-25T17:47:10.574Z,119.77
2019-01-25T17:50:14.857Z,119.27
2019-01-25T17:53:19.253Z,118.97
2019-01-25T17:56:23.598Z,126.40
2019-01-25T17:59:28.837Z,123.67
2019-01-25T18:02:33.018Z,130.40
2019-01-25T18:05:37.229Z,123.63
2019-01-25T18:08:41.351Z,128.87
2019-01-25T18:11:45.687Z,141.57
2019-01-25T18:14:49.800Z,136.83
2019-01-25T18:17:54.028Z,164.00
2019-01-25T18:21:00.907Z,187.60
2019-01-25T18:24:05.154Z,423.30
2019-01-25T18:27:09.329Z,293.60
2019-01-25T18:30:28.016Z,317.30
2019-01-25T18:33:32.203Z,343.83
2019-01-25T18:36:36.386Z,311.57
2019-01-25T18:39:40.579Z,257.37
2019-01-25T18:42:44.754Z,193.17
2019-01-25T18:45:48.927Z,216.13
2019-01-25T18:48:53.153Z,188.60
2019-01-25T18:51:57.390Z,175.60
2019-01-25T18:55:01.637Z,173.07
2019-01-25T18:58:05.786Z,162.90
2019-01-25T19:01:09.920Z,149.17
2019-01-25T19:04:14.033Z,161.97
2019-01-25T19:07:21.026Z,161.13
2019-01-25T19:10:26.125Z,157.93
2019-01-25T19:13:30.619Z,143.63
2019-01-25T19:16:34.913Z,151.83
2019-01-25T19:19:39.129Z,165.60
2019-01-25T19:22:43.308Z,157.33
2019-01-25T19:25:47.456Z,155.13
2019-01-25T19:29:06.666Z,149.37
2019-01-25T19:32:10.928Z,150.67
2019-01-25T19:35:15.301Z,155.03
2019-01-25T19:38:21.780Z,149.17
2019-01-25T19:41:25.916Z,171.73
2019-01-25T19:44:30.431Z,169.03
2019-01-25T19:47:34.638Z,161.87
2019-01-25T19:50:38.803Z,166.97
2019-01-25T19:53:46.154Z,150.77
2019-01-25T19:56:50.511Z,147.60
2019-01-25T19:59:54.739Z,141.67
2019-01-25T20:02:58.979Z,142.73
2019-01-25T20:06:03.213Z,145.03
2019-01-25T20:09:10.323Z,140.00
2019-01-25T20:12:14.602Z,132.77
2019-01-25T20:15:19.698Z,125.60
2019-01-25T20:18:23.955Z,130.17
2019-01-25T20:21:28.210Z,114.57
2019-01-25T20:24:32.445Z,118.53
2019-01-25T20:27:36.791Z,114.13
2019-01-25T20:30:41.080Z,106.90
2019-01-25T20:33:45.854Z,103.23
2019-01-25T20:36:50.405Z,114.87
2019-01-25T20:39:54.782Z,143.10
2019-01-25T20:42:59.024Z,133.50
2019-01-25T20:46:03.632Z,123.50
2019-01-25T20:49:07.844Z,113.77
2019-01-25T20:52:12.074Z,131.07
2019-01-25T20:55:17.491Z,139.13
2019-01-25T20:58:21.729Z,217.07
2019-01-25T21:01:25.948Z,188.60
2019-01-25T21:04:30.568Z,178.53
2019-01-25T21:07:36.804Z,201.10
2019-01-25T21:10:41.168Z,180.40
2019-01-25T21:13:45.486Z,184.10
2019-01-25T21:16:50.088Z,209.93
2019-01-25T21:19:54.984Z,209.33
2019-01-25T21:23:00.745Z,233.27
2019-01-25T21:26:05.358Z,199.40
2019-01-25T21:29:10.241Z,195.53
2019-01-25T21:32:14.419Z,217.07
2019-01-25T21:35:18.636Z,222.20
2019-01-25T21:38:22.834Z,233.67
2019-01-25T21:41:27.156Z,229.33
2019-01-25T21:44:31.493Z,202.40
2019-01-25T21:47:35.676Z,188.77
2019-01-25T21:50:41.348Z,188.03
2019-01-25T21:53:46.088Z,177.47
2019-01-25T21:56:50.277Z,168.63
2019-01-25T21:59:54.496Z,170.27
2019-01-25T22:02:58.696Z,168.97
2019-01-25T22:06:02.929Z,174.33
2019-01-25T22:09:08.315Z,182.20
2019-01-25T22:12:12.675Z,181.87
2019-01-25T22:15:17.433Z,178.00
2019-01-25T22:18:21.904Z,192.87
2019-01-25T22:21:26.172Z,176.53
2019-01-25T22:24:30.505Z,162.00
2019-01-25T22:27:34.689Z,182.63
2019-01-25T22:30:38.917Z,163.63
2019-01-25T22:33:43.138Z,171.10
2019-01-25T22:36:47.349Z,165.50
2019-01-25T22:39:51.452Z,156.90
2019-01-25T22:42:55.600Z,163.07
2019-01-25T22:45:59.708Z,157.33
2019-01-25T22:49:03.856Z,154.00
2019-01-25T22:52:07.955Z,150.73
2019-01-25T22:55:13.221Z,152.87
2019-01-25T22:58:17.311Z,154.17
2019-01-25T23:01:32.886Z,172.33
2019-01-25T23:05:36.489Z,160.73
2019-01-25T23:08:40.666Z,169.97
2019-01-25T23:11:44.855Z,173.67
2019-01-25T23:14:49.139Z,177.20
2019-01-25T23:17:53.317Z,174.67
2019-01-25T23:20:57.455Z,192.00
2019-01-25T23:24:01.552Z,160.30
2019-01-25T23:27:05.753Z,183.70
2019-01-25T23:30:15.219Z,174.93
2019-01-25T23:33:19.458Z,179.90
2019-01-25T23:36:23.640Z,178.20
2019-01-25T23:39:27.829Z,174.90
2019-01-25T23:42:31.941Z,175.10
2019-01-25T23:45:36.096Z,188.27
2019-01-25T23:48:40.277Z,179.57
2019-01-25T23:51:44.479Z,188.57
2019-01-25T23:54:48.667Z,166.40
2019-01-25T23:57:52.887Z,164.03
